NKS7648 KFLL-KMCO
Flight info
| Callsign | NKS7648 |
|---|---|
| Flight time | N/A |
| Altitude | 20000 |
| Route | FRSBE2 WAPOM MUNGI1 |
| Aircraft | A320/M-SDE3FGHIRWY/LB1 |
Departure
| Time | 2026-05-03 22:51 |
|---|---|
| Airport | Fort Lauderdale Hollywood International Airport (KFLL) |
Arrival
| Time | N/A |
|---|---|
| Airport | Orlando International Airport (KMCO) |
| Time | Latitude | Longitude | Altitude | Speed | Heading |
|---|---|---|---|---|---|
| 2026-05-03 21:33 | 26.07149 | -80.14688 | 16 ft | 0 kts | 176° |
| 2026-05-03 21:34 | 26.07044 | -80.14671 | 18 ft | 0 kts | 17° |
| 2026-05-03 21:57 | 26.07043 | -80.14671 | 16 ft | 1 kts | 17° |
| 2026-05-03 21:57 | 26.07027 | -80.14675 | 17 ft | 3 kts | 358° |
| 2026-05-03 21:58 | 26.07009 | -80.14671 | 17 ft | 3 kts | 324° |
| 2026-05-03 21:58 | 26.06996 | -80.14657 | 17 ft | 3 kts | 286° |
| 2026-05-03 21:58 | 26.06994 | -80.14646 | 18 ft | 0 kts | 271° |
| 2026-05-03 22:01 | 26.06994 | -80.14654 | 25 ft | 2 kts | 270° |
| 2026-05-03 22:01 | 26.06994 | -80.14679 | 13 ft | 5 kts | 266° |
| 2026-05-03 22:02 | 26.06977 | -80.14726 | 16 ft | 10 kts | 234° |
| 2026-05-03 22:02 | 26.06921 | -80.14800 | 17 ft | 14 kts | 234° |
| 2026-05-03 22:02 | 26.06900 | -80.14905 | 16 ft | 16 kts | 274° |
| 2026-05-03 22:02 | 26.06911 | -80.15041 | 16 ft | 19 kts | 272° |
| 2026-05-03 22:03 | 26.06983 | -80.15131 | 16 ft | 19 kts | 6° |
| 2026-05-03 22:03 | 26.07127 | -80.15128 | 16 ft | 22 kts | 0° |
| 2026-05-03 22:03 | 26.07290 | -80.15127 | 16 ft | 24 kts | 0° |
| 2026-05-03 22:03 | 26.07463 | -80.15130 | 16 ft | 23 kts | 344° |
| 2026-05-03 22:04 | 26.07488 | -80.15260 | 16 ft | 18 kts | 273° |
| 2026-05-03 22:04 | 26.07491 | -80.15411 | 16 ft | 21 kts | 270° |
| 2026-05-03 22:04 | 26.07492 | -80.15581 | 16 ft | 23 kts | 270° |
| 2026-05-03 22:04 | 26.07492 | -80.15763 | 16 ft | 24 kts | 270° |
| 2026-05-03 22:05 | 26.07493 | -80.15908 | 16 ft | 0 kts | 270° |
| 2026-05-03 22:08 | 26.07493 | -80.15909 | 16 ft | 1 kts | 270° |
| 2026-05-03 22:08 | 26.07493 | -80.15923 | 16 ft | 3 kts | 270° |
| 2026-05-03 22:08 | 26.07493 | -80.15933 | 16 ft | 0 kts | 270° |
| 2026-05-03 22:08 | 26.07493 | -80.15937 | 16 ft | 0 kts | 270° |
| 2026-05-03 22:10 | 26.07493 | -80.15945 | 16 ft | 2 kts | 270° |
| 2026-05-03 22:10 | 26.07493 | -80.15964 | 16 ft | 0 kts | 271° |
| 2026-05-03 22:11 | 26.07493 | -80.15966 | 16 ft | 1 kts | 271° |
| 2026-05-03 22:11 | 26.07494 | -80.15982 | 16 ft | 3 kts | 271° |
| 2026-05-03 22:11 | 26.07494 | -80.16015 | 16 ft | 4 kts | 271° |
| 2026-05-03 22:11 | 26.07494 | -80.16034 | 16 ft | 2 kts | 270° |
| 2026-05-03 22:12 | 26.07495 | -80.16058 | 16 ft | 4 kts | 270° |
| 2026-05-03 22:12 | 26.07495 | -80.16069 | 16 ft | 2 kts | 270° |
| 2026-05-03 22:12 | 26.07495 | -80.16073 | 16 ft | 0 kts | 270° |
| 2026-05-03 22:15 | 26.07495 | -80.16074 | 16 ft | 1 kts | 270° |
| 2026-05-03 22:15 | 26.07495 | -80.16076 | 16 ft | 0 kts | 270° |
| 2026-05-03 22:16 | 26.07495 | -80.16078 | 16 ft | 0 kts | 270° |
| 2026-05-03 22:17 | 26.07495 | -80.16083 | 16 ft | 2 kts | 270° |
| 2026-05-03 22:17 | 26.07495 | -80.16107 | 16 ft | 4 kts | 270° |
| 2026-05-03 22:18 | 26.07495 | -80.16142 | 16 ft | 0 kts | 270° |
| 2026-05-03 22:19 | 26.07495 | -80.16143 | 16 ft | 1 kts | 270° |
| 2026-05-03 22:19 | 26.07495 | -80.16158 | 16 ft | 3 kts | 270° |
| 2026-05-03 22:20 | 26.07495 | -80.16192 | 16 ft | 5 kts | 271° |
| 2026-05-03 22:20 | 26.07495 | -80.16224 | 16 ft | 3 kts | 270° |
| 2026-05-03 22:20 | 26.07495 | -80.16260 | 16 ft | 6 kts | 270° |
| 2026-05-03 22:20 | 26.07495 | -80.16263 | 16 ft | 0 kts | 270° |
| 2026-05-03 22:21 | 26.07495 | -80.16266 | 16 ft | 2 kts | 270° |
| 2026-05-03 22:21 | 26.07495 | -80.16268 | 16 ft | 0 kts | 270° |
| 2026-05-03 22:24 | 26.07496 | -80.16283 | 16 ft | 3 kts | 270° |
| 2026-05-03 22:24 | 26.07496 | -80.16313 | 16 ft | 3 kts | 270° |
| 2026-05-03 22:24 | 26.07496 | -80.16318 | 16 ft | 0 kts | 270° |
| 2026-05-03 22:25 | 26.07496 | -80.16331 | 16 ft | 3 kts | 270° |
| 2026-05-03 22:25 | 26.07496 | -80.16364 | 16 ft | 5 kts | 270° |
| 2026-05-03 22:26 | 26.07496 | -80.16372 | 16 ft | 0 kts | 270° |
| 2026-05-03 22:31 | 26.07496 | -80.16382 | 16 ft | 2 kts | 270° |
| 2026-05-03 22:31 | 26.07496 | -80.16399 | 16 ft | 0 kts | 270° |
| 2026-05-03 22:33 | 26.07496 | -80.16400 | 16 ft | 0 kts | 270° |
| 2026-05-03 22:33 | 26.07496 | -80.16403 | 16 ft | 1 kts | 270° |
| 2026-05-03 22:33 | 26.07496 | -80.16422 | 16 ft | 4 kts | 271° |
| 2026-05-03 22:33 | 26.07496 | -80.16426 | 16 ft | 0 kts | 270° |
| 2026-05-03 22:37 | 26.07496 | -80.16439 | 16 ft | 3 kts | 270° |
| 2026-05-03 22:38 | 26.07497 | -80.16471 | 16 ft | 5 kts | 270° |
| 2026-05-03 22:38 | 26.07497 | -80.16491 | 16 ft | 0 kts | 270° |
| 2026-05-03 22:38 | 26.07497 | -80.16492 | 16 ft | 0 kts | 270° |
| 2026-05-03 22:38 | 26.07497 | -80.16498 | 16 ft | 0 kts | 270° |
| 2026-05-03 22:39 | 26.07497 | -80.16511 | 16 ft | 3 kts | 270° |
| 2026-05-03 22:39 | 26.07497 | -80.16542 | 16 ft | 2 kts | 270° |
| 2026-05-03 22:39 | 26.07497 | -80.16565 | 16 ft | 2 kts | 270° |
| 2026-05-03 22:39 | 26.07497 | -80.16569 | 16 ft | 1 kts | 270° |
| 2026-05-03 22:40 | 26.07497 | -80.16585 | 16 ft | 3 kts | 270° |
| 2026-05-03 22:40 | 26.07499 | -80.16605 | 16 ft | 0 kts | 278° |
| 2026-05-03 22:42 | 26.07499 | -80.16607 | 16 ft | 1 kts | 279° |
| 2026-05-03 22:42 | 26.07500 | -80.16610 | 16 ft | 0 kts | 285° |
| 2026-05-03 22:43 | 26.07503 | -80.16617 | 16 ft | 0 kts | 292° |
| 2026-05-03 22:47 | 26.07507 | -80.16626 | 17 ft | 6 kts | 304° |
| 2026-05-03 22:47 | 26.07559 | -80.16643 | 16 ft | 10 kts | 1° |
| 2026-05-03 22:48 | 26.07589 | -80.16643 | 17 ft | 0 kts | 360° |
| 2026-05-03 22:49 | 26.07590 | -80.16643 | 17 ft | 0 kts | 360° |
| 2026-05-03 22:49 | 26.07600 | -80.16643 | 17 ft | 3 kts | 360° |
| 2026-05-03 22:49 | 26.07646 | -80.16643 | 17 ft | 9 kts | 1° |
| 2026-05-03 22:49 | 26.07696 | -80.16590 | 19 ft | 12 kts | 81° |
| 2026-05-03 22:50 | 26.07696 | -80.16545 | 18 ft | 0 kts | 90° |
| 2026-05-03 22:50 | 26.07695 | -80.16518 | 19 ft | 21 kts | 90° |
| 2026-05-03 22:51 | 26.07693 | -80.16064 | 19 ft | 93 kts | 90° |
| 2026-05-03 22:51 | 26.07688 | -80.15124 | 16 ft | 147 kts | 90° |
| 2026-05-03 22:51 | 26.07691 | -80.13880 | 351 ft | 162 kts | 86° |
| 2026-05-03 22:51 | 26.07708 | -80.12622 | 988 ft | 164 kts | 85° |
| 2026-05-03 22:52 | 26.07762 | -80.11346 | 1644 ft | 167 kts | 85° |
| 2026-05-03 22:52 | 26.07835 | -80.10009 | 2086 ft | 183 kts | 79° |
| 2026-05-03 22:52 | 26.08279 | -80.08619 | 2423 ft | 200 kts | 60° |
| 2026-05-03 22:52 | 26.09119 | -80.07324 | 2707 ft | 221 kts | 42° |
| 2026-05-03 22:53 | 26.10511 | -80.06417 | 2976 ft | 246 kts | 16° |
| 2026-05-03 22:53 | 26.12210 | -80.05814 | 3494 ft | 267 kts | 16° |
| 2026-05-03 22:53 | 26.13994 | -80.05151 | 4341 ft | 273 kts | 15° |
| 2026-05-03 22:53 | 26.15876 | -80.04815 | 5110 ft | 277 kts | 352° |
| 2026-05-03 22:54 | 26.17727 | -80.05353 | 5944 ft | 276 kts | 335° |
| 2026-05-03 22:54 | 26.19532 | -80.06125 | 6677 ft | 280 kts | 335° |
| 2026-05-03 22:54 | 26.21236 | -80.07130 | 6915 ft | 275 kts | 319° |
| 2026-05-03 22:54 | 26.22752 | -80.08425 | 7004 ft | 277 kts | 327° |
| 2026-05-03 22:55 | 26.24597 | -80.09069 | 7015 ft | 284 kts | 354° |
| 2026-05-03 22:55 | 26.26550 | -80.08710 | 7016 ft | 291 kts | 21° |
| 2026-05-03 22:55 | 26.28196 | -80.07400 | 7015 ft | 295 kts | 48° |
| 2026-05-03 22:55 | 26.29178 | -80.05396 | 7015 ft | 298 kts | 75° |
| 2026-05-03 22:56 | 26.29574 | -80.03122 | 7016 ft | 300 kts | 82° |
| 2026-05-03 22:56 | 26.29902 | -80.00825 | 7013 ft | 300 kts | 76° |
| 2026-05-03 22:56 | 26.30784 | -79.98749 | 7015 ft | 297 kts | 49° |
| 2026-05-03 22:56 | 26.32364 | -79.97317 | 7024 ft | 292 kts | 22° |
| 2026-05-03 22:57 | 26.34300 | -79.96816 | 7024 ft | 284 kts | 355° |
| 2026-05-03 22:57 | 26.36186 | -79.97305 | 7025 ft | 277 kts | 330° |
| 2026-05-03 22:57 | 26.37706 | -79.98559 | 7025 ft | 271 kts | 309° |
| 2026-05-03 22:57 | 26.38923 | -80.00159 | 7025 ft | 271 kts | 307° |
| 2026-05-03 22:58 | 26.40133 | -80.01766 | 7025 ft | 271 kts | 307° |
| 2026-05-03 22:58 | 26.41346 | -80.03376 | 7023 ft | 271 kts | 307° |
| 2026-05-03 22:58 | 26.42559 | -80.04988 | 7024 ft | 271 kts | 307° |
| 2026-05-03 22:58 | 26.43774 | -80.06599 | 7025 ft | 271 kts | 307° |
| 2026-05-03 22:59 | 26.44999 | -80.08229 | 7290 ft | 279 kts | 307° |
| 2026-05-03 22:59 | 26.46188 | -80.09813 | 8276 ft | 276 kts | 307° |
| 2026-05-03 22:59 | 26.47405 | -80.11432 | 9235 ft | 277 kts | 306° |
| 2026-05-03 22:59 | 26.48646 | -80.13088 | 10108 ft | 279 kts | 306° |
| 2026-05-03 23:00 | 26.49935 | -80.14811 | 10450 ft | 301 kts | 306° |
| 2026-05-03 23:00 | 26.51319 | -80.16665 | 10791 ft | 318 kts | 306° |
| 2026-05-03 23:00 | 26.52753 | -80.18579 | 11413 ft | 324 kts | 306° |
| 2026-05-03 23:00 | 26.54212 | -80.20522 | 12171 ft | 327 kts | 306° |
| 2026-05-03 23:01 | 26.55676 | -80.22476 | 12922 ft | 330 kts | 306° |
| 2026-05-03 23:01 | 26.57155 | -80.24449 | 13641 ft | 332 kts | 306° |
| 2026-05-03 23:01 | 26.58646 | -80.26436 | 14292 ft | 335 kts | 306° |
| 2026-05-03 23:01 | 26.60145 | -80.28434 | 14922 ft | 338 kts | 305° |
| 2026-05-03 23:02 | 26.61663 | -80.30460 | 15543 ft | 340 kts | 305° |
| 2026-05-03 23:02 | 26.63185 | -80.32496 | 16148 ft | 343 kts | 305° |
| 2026-05-03 23:02 | 26.64723 | -80.34553 | 16752 ft | 346 kts | 304° |
| 2026-05-03 23:02 | 26.66274 | -80.36627 | 17361 ft | 349 kts | 304° |
| 2026-05-03 23:03 | 26.67840 | -80.38722 | 17978 ft | 352 kts | 304° |
| 2026-05-03 23:03 | 26.69418 | -80.40835 | 18574 ft | 355 kts | 304° |
| 2026-05-03 23:03 | 26.71007 | -80.42967 | 19136 ft | 358 kts | 304° |
| 2026-05-03 23:03 | 26.72611 | -80.45118 | 19704 ft | 361 kts | 303° |
| 2026-05-03 23:04 | 26.74225 | -80.47283 | 19932 ft | 362 kts | 303° |
| 2026-05-03 23:04 | 26.75835 | -80.49442 | 20004 ft | 359 kts | 303° |
| 2026-05-03 23:04 | 26.77410 | -80.51550 | 20010 ft | 357 kts | 303° |
| 2026-05-03 23:04 | 26.78999 | -80.53674 | 20007 ft | 356 kts | 303° |
| 2026-05-03 23:05 | 26.80587 | -80.55806 | 20015 ft | 355 kts | 303° |
| 2026-05-03 23:05 | 26.82164 | -80.57932 | 20015 ft | 355 kts | 303° |
| 2026-05-03 23:05 | 26.83741 | -80.60061 | 20005 ft | 355 kts | 303° |
| 2026-05-03 23:05 | 26.85315 | -80.62189 | 20019 ft | 355 kts | 303° |
| 2026-05-03 23:06 | 26.86895 | -80.64322 | 20018 ft | 355 kts | 303° |
| 2026-05-03 23:06 | 26.88471 | -80.66443 | 20006 ft | 354 kts | 303° |
| 2026-05-03 23:06 | 26.90116 | -80.68506 | 20006 ft | 359 kts | 310° |
| 2026-05-03 23:06 | 26.92148 | -80.70194 | 20008 ft | 370 kts | 323° |
| 2026-05-03 23:07 | 26.94549 | -80.71357 | 20014 ft | 381 kts | 334° |
| 2026-05-03 23:07 | 26.97060 | -80.72295 | 20015 ft | 381 kts | 334° |
| 2026-05-03 23:07 | 26.99585 | -80.73239 | 20016 ft | 381 kts | 333° |
| 2026-05-03 23:07 | 27.02104 | -80.74185 | 20017 ft | 382 kts | 333° |
| 2026-05-03 23:08 | 27.04621 | -80.75134 | 20020 ft | 382 kts | 333° |
| 2026-05-03 23:08 | 27.07143 | -80.76090 | 20033 ft | 382 kts | 333° |
| 2026-05-03 23:08 | 27.09629 | -80.77034 | 20022 ft | 382 kts | 333° |
| 2026-05-03 23:08 | 27.12142 | -80.77988 | 20037 ft | 382 kts | 333° |
| 2026-05-03 23:09 | 27.14661 | -80.78944 | 20034 ft | 382 kts | 333° |
| 2026-05-03 23:09 | 27.17179 | -80.79900 | 20044 ft | 382 kts | 333° |
| 2026-05-03 23:09 | 27.19698 | -80.80855 | 20035 ft | 382 kts | 333° |
| 2026-05-03 23:09 | 27.22215 | -80.81810 | 20034 ft | 382 kts | 333° |
| 2026-05-03 23:10 | 27.24730 | -80.82765 | 20033 ft | 381 kts | 333° |
| 2026-05-03 23:10 | 27.27243 | -80.83719 | 20032 ft | 381 kts | 333° |